createdAt,value
2018-12-14T00:00:42.996Z,10.90
2018-12-14T00:01:48.528Z,9.40
2018-12-14T00:02:54.064Z,8.00
2018-12-14T00:03:59.596Z,8.70
2018-12-14T00:05:05.125Z,10.40
2018-12-14T00:06:10.653Z,9.70
2018-12-14T00:07:16.181Z,7.60
2018-12-14T00:08:21.713Z,9.20
2018-12-14T00:09:27.249Z,8.20
2018-12-14T00:10:32.774Z,11.00
2018-12-14T00:11:38.302Z,10.40
2018-12-14T00:12:43.836Z,11.00
2018-12-14T00:13:49.364Z,8.90
2018-12-14T00:14:54.900Z,9.20
2018-12-14T00:16:00.432Z,10.40
2018-12-14T00:17:05.956Z,8.40
2018-12-14T00:18:11.487Z,10.50
2018-12-14T00:19:17.024Z,8.30
2018-12-14T00:20:22.553Z,13.10
2018-12-14T00:21:28.076Z,12.50
2018-12-14T00:22:33.615Z,8.50
2018-12-14T00:23:39.141Z,10.30
2018-12-14T00:24:44.677Z,8.50
2018-12-14T00:25:50.201Z,10.10
2018-12-14T00:26:55.742Z,7.90
2018-12-14T00:28:01.266Z,10.30
2018-12-14T00:29:06.796Z,12.50
2018-12-14T00:30:12.322Z,9.60
2018-12-14T00:31:17.852Z,9.80
2018-12-14T00:32:23.384Z,8.00
2018-12-14T00:33:28.915Z,12.00
2018-12-14T00:34:34.447Z,10.10
2018-12-14T00:35:39.982Z,11.00
2018-12-14T00:36:45.505Z,9.80
2018-12-14T00:37:51.039Z,11.30
2018-12-14T00:38:56.569Z,10.30
2018-12-14T00:40:02.103Z,11.70
2018-12-14T00:41:07.629Z,8.40
2018-12-14T00:42:13.160Z,9.10
2018-12-14T00:43:18.690Z,9.90
2018-12-14T00:44:24.222Z,8.80
2018-12-14T00:45:29.750Z,11.00
2018-12-14T00:46:35.282Z,6.10
2018-12-14T00:47:40.815Z,8.70
2018-12-14T00:48:46.343Z,8.80
2018-12-14T00:49:51.876Z,10.70
2018-12-14T00:50:57.408Z,10.40
2018-12-14T00:52:02.931Z,10.60
2018-12-14T00:53:08.464Z,10.20
2018-12-14T00:54:13.996Z,6.30
2018-12-14T00:55:19.524Z,9.10
2018-12-14T00:56:25.053Z,10.90
2018-12-14T00:57:30.585Z,9.20
2018-12-14T00:58:36.119Z,7.90
2018-12-14T00:59:41.648Z,9.00
2018-12-14T01:00:47.174Z,11.40
2018-12-14T01:01:52.707Z,9.00
2018-12-14T01:02:58.233Z,7.90
2018-12-14T01:04:03.769Z,10.90
2018-12-14T01:05:09.295Z,10.90
2018-12-14T01:06:14.832Z,11.40
2018-12-14T01:07:20.355Z,9.10
2018-12-14T01:08:25.888Z,7.20
2018-12-14T01:09:31.421Z,8.70
2018-12-14T01:10:36.948Z,11.60
2018-12-14T01:11:42.479Z,8.90
2018-12-14T01:12:48.008Z,7.70
2018-12-14T01:13:53.536Z,9.50
2018-12-14T01:14:59.067Z,13.20
2018-12-14T01:16:04.606Z,8.50
2018-12-14T01:17:10.172Z,8.60
2018-12-14T01:18:15.666Z,10.60
2018-12-14T01:19:21.193Z,9.40
2018-12-14T01:20:26.715Z,10.00
2018-12-14T01:21:32.248Z,8.50
2018-12-14T01:22:37.784Z,8.60
2018-12-14T01:23:43.311Z,8.50
2018-12-14T01:24:48.839Z,11.60
2018-12-14T01:25:54.380Z,9.10
2018-12-14T01:26:59.898Z,9.00
2018-12-14T01:28:05.433Z,8.90
2018-12-14T01:29:11.031Z,9.10
2018-12-14T01:30:16.497Z,8.20
2018-12-14T01:31:22.022Z,10.30
2018-12-14T01:32:27.553Z,7.10
2018-12-14T01:33:33.088Z,7.10
2018-12-14T01:34:38.617Z,10.10
2018-12-14T01:35:44.142Z,8.50
2018-12-14T01:36:49.674Z,9.90
2018-12-14T01:37:55.201Z,7.30
2018-12-14T01:39:00.730Z,8.90
2018-12-14T01:40:06.269Z,8.30
2018-12-14T01:41:11.794Z,8.60
2018-12-14T01:42:17.321Z,7.90
2018-12-14T01:43:22.851Z,8.40
2018-12-14T01:44:28.381Z,6.50
2018-12-14T01:45:33.918Z,8.50
2018-12-14T01:46:39.449Z,7.90
2018-12-14T01:47:44.980Z,8.80
2018-12-14T01:48:50.511Z,9.80
2018-12-14T01:49:56.036Z,8.10
2018-12-14T01:51:01.570Z,10.30
2018-12-14T01:52:07.098Z,7.70
2018-12-14T01:53:12.631Z,9.10
2018-12-14T01:54:18.159Z,13.80
2018-12-14T01:55:23.693Z,13.50
2018-12-14T01:56:29.215Z,13.80
2018-12-14T01:57:34.757Z,9.40
2018-12-14T01:58:40.281Z,10.20
2018-12-14T01:59:45.812Z,7.30
2018-12-14T02:00:51.343Z,8.20
2018-12-14T02:01:56.873Z,7.70
2018-12-14T02:03:02.401Z,10.80
2018-12-14T02:04:07.929Z,9.90
2018-12-14T02:05:13.459Z,7.80
2018-12-14T02:06:18.989Z,10.00
2018-12-14T02:07:24.522Z,9.90
2018-12-14T02:08:30.055Z,9.00
2018-12-14T02:09:35.586Z,9.90
2018-12-14T02:10:41.114Z,10.60
2018-12-14T02:11:46.642Z,8.00
2018-12-14T02:12:52.173Z,9.10
2018-12-14T02:13:57.702Z,8.50
2018-12-14T02:15:03.239Z,7.40
2018-12-14T02:16:08.764Z,9.00
2018-12-14T02:17:14.325Z,7.40
2018-12-14T02:18:19.829Z,7.90
2018-12-14T02:19:25.932Z,10.70
2018-12-14T02:20:30.889Z,8.90
2018-12-14T02:21:36.417Z,9.40
2018-12-14T02:22:41.959Z,9.70
2018-12-14T02:23:47.482Z,8.60
2018-12-14T02:24:53.018Z,8.50
2018-12-14T02:25:58.542Z,11.70
2018-12-14T02:27:04.070Z,9.20
2018-12-14T02:28:09.615Z,10.10
2018-12-14T02:29:15.132Z,10.10
2018-12-14T02:30:20.664Z,8.60
2018-12-14T02:31:26.193Z,10.90
2018-12-14T02:32:31.721Z,9.70
2018-12-14T02:33:37.249Z,8.40
2018-12-14T02:34:42.790Z,10.30
2018-12-14T02:35:48.319Z,8.50
2018-12-14T02:36:53.841Z,6.90
2018-12-14T02:37:59.372Z,7.50
2018-12-14T02:39:04.905Z,8.60
2018-12-14T02:40:10.432Z,10.60
2018-12-14T02:41:15.971Z,11.00
2018-12-14T02:42:21.493Z,7.90
2018-12-14T02:43:27.026Z,10.00
2018-12-14T02:44:32.556Z,8.20
2018-12-14T02:45:38.086Z,10.50
2018-12-14T02:46:43.629Z,8.60
2018-12-14T02:47:49.152Z,8.40
2018-12-14T02:48:54.677Z,8.60
2018-12-14T02:50:00.208Z,9.30
2018-12-14T02:51:05.743Z,8.70
2018-12-14T02:52:11.273Z,9.90
2018-12-14T02:53:16.805Z,9.90
2018-12-14T02:54:22.331Z,9.30
2018-12-14T02:55:27.861Z,10.80
2018-12-14T02:56:33.392Z,7.30
2018-12-14T02:57:38.925Z,7.20
2018-12-14T02:58:44.452Z,10.00
2018-12-14T02:59:49.976Z,8.90
2018-12-14T03:00:55.511Z,7.60
2018-12-14T03:02:01.040Z,9.30
2018-12-14T03:03:06.571Z,8.00
2018-12-14T03:04:12.106Z,8.90
2018-12-14T03:05:17.632Z,9.30
2018-12-14T03:06:23.165Z,8.30
2018-12-14T03:07:28.697Z,7.60
2018-12-14T03:08:34.222Z,10.10
2018-12-14T03:09:39.761Z,7.70
2018-12-14T03:10:45.289Z,8.50
2018-12-14T03:11:50.815Z,8.80
2018-12-14T03:12:56.343Z,6.90
2018-12-14T03:14:01.877Z,9.10
2018-12-14T03:15:07.412Z,8.70
2018-12-14T03:16:12.936Z,5.10
2018-12-14T03:17:18.462Z,8.70
2018-12-14T03:18:23.996Z,8.90
2018-12-14T03:19:29.525Z,7.10
2018-12-14T03:20:35.057Z,8.00
2018-12-14T03:21:40.592Z,7.50
2018-12-14T03:22:46.114Z,8.50
2018-12-14T03:23:51.645Z,7.00
2018-12-14T03:24:57.179Z,6.90
2018-12-14T03:26:02.713Z,7.80
2018-12-14T03:27:08.238Z,9.60
2018-12-14T03:28:13.773Z,7.70
2018-12-14T03:29:19.295Z,7.10
2018-12-14T03:30:24.831Z,7.70
2018-12-14T03:31:30.359Z,10.20
2018-12-14T03:32:35.888Z,8.60
2018-12-14T03:33:41.419Z,7.50
2018-12-14T03:34:46.948Z,7.90
2018-12-14T03:35:52.477Z,8.60
2018-12-14T03:36:58.009Z,8.90
2018-12-14T03:38:03.599Z,7.80
2018-12-14T03:39:09.068Z,8.80
2018-12-14T03:40:14.600Z,7.60
2018-12-14T03:41:20.126Z,9.30
2018-12-14T03:42:25.659Z,8.60
2018-12-14T03:43:31.197Z,9.30
2018-12-14T03:44:36.719Z,9.40
2018-12-14T03:45:42.256Z,8.80
2018-12-14T03:46:47.784Z,6.80
2018-12-14T03:47:53.317Z,7.00
2018-12-14T03:48:58.840Z,7.40
2018-12-14T03:50:04.371Z,8.10
2018-12-14T03:51:09.907Z,6.30
2018-12-14T03:52:15.430Z,8.70
2018-12-14T03:53:20.967Z,7.60
2018-12-14T03:54:26.504Z,8.40
2018-12-14T03:55:32.025Z,9.80
2018-12-14T03:56:37.553Z,6.80
2018-12-14T03:57:43.083Z,8.80
2018-12-14T03:58:48.614Z,7.60
2018-12-14T03:59:54.142Z,9.50
2018-12-14T04:00:59.672Z,8.50
2018-12-14T04:02:05.207Z,9.00
2018-12-14T04:03:10.732Z,7.30
2018-12-14T04:04:16.265Z,7.50
2018-12-14T04:05:21.792Z,7.60
2018-12-14T04:06:27.325Z,9.80
2018-12-14T04:07:32.857Z,8.60
2018-12-14T04:08:38.389Z,10.10
2018-12-14T04:09:43.918Z,8.50
2018-12-14T04:10:49.447Z,9.10
2018-12-14T04:11:54.975Z,8.30
2018-12-14T04:13:00.505Z,8.70
2018-12-14T04:14:06.036Z,10.00
2018-12-14T04:15:11.576Z,10.00
2018-12-14T04:16:17.096Z,10.30
2018-12-14T04:17:22.624Z,10.40
2018-12-14T04:18:28.157Z,7.00
2018-12-14T04:19:33.686Z,8.80
2018-12-14T04:20:39.218Z,8.50
2018-12-14T04:21:44.752Z,9.00
2018-12-14T04:22:50.278Z,7.80
2018-12-14T04:23:55.809Z,6.30
2018-12-14T04:25:01.338Z,7.40
2018-12-14T04:26:06.871Z,8.20
2018-12-14T04:27:12.395Z,7.90
2018-12-14T04:28:17.926Z,10.00
2018-12-14T04:29:23.459Z,7.60
2018-12-14T04:30:28.994Z,8.50
2018-12-14T04:31:34.528Z,7.90
2018-12-14T04:32:40.047Z,6.80
2018-12-14T04:33:45.583Z,8.00
2018-12-14T04:34:51.117Z,8.20
2018-12-14T04:35:56.640Z,8.20
2018-12-14T04:37:02.172Z,7.40
2018-12-14T04:38:07.713Z,7.40
2018-12-14T04:39:13.228Z,8.00
2018-12-14T04:40:18.761Z,10.00
2018-12-14T04:41:24.293Z,7.30
2018-12-14T04:42:29.823Z,9.60
2018-12-14T04:43:35.356Z,8.70
2018-12-14T04:44:40.888Z,7.80
2018-12-14T04:45:46.419Z,8.60
2018-12-14T04:46:51.949Z,8.60
2018-12-14T04:47:57.475Z,8.30
2018-12-14T04:49:03.006Z,9.80
2018-12-14T04:50:08.537Z,9.30
2018-12-14T04:51:14.066Z,9.30
2018-12-14T04:52:19.598Z,9.10
2018-12-14T04:53:25.126Z,8.30
2018-12-14T04:54:30.663Z,7.80
2018-12-14T04:55:36.188Z,9.60
2018-12-14T04:56:41.725Z,6.70
2018-12-14T04:57:47.250Z,6.60
2018-12-14T04:58:52.781Z,8.90
2018-12-14T04:59:58.313Z,6.40
2018-12-14T05:01:03.842Z,8.70
2018-12-14T05:02:09.375Z,7.30
2018-12-14T05:03:14.899Z,6.70
2018-12-14T05:04:20.431Z,8.20
2018-12-14T05:05:25.970Z,6.50
2018-12-14T05:06:31.596Z,8.10
2018-12-14T05:07:37.019Z,5.20
2018-12-14T05:08:42.550Z,6.50
2018-12-14T05:09:48.083Z,10.20
2018-12-14T05:10:53.618Z,7.60
2018-12-14T05:11:59.146Z,6.40
2018-12-14T05:13:04.682Z,9.10
2018-12-14T05:14:10.207Z,6.80
2018-12-14T05:15:15.732Z,8.90
2018-12-14T05:16:21.270Z,9.00
2018-12-14T05:17:26.794Z,6.80
2018-12-14T05:18:32.327Z,8.30
2018-12-14T05:19:37.861Z,10.10
2018-12-14T05:20:43.386Z,8.20
2018-12-14T05:21:48.920Z,6.40
2018-12-14T05:22:54.443Z,7.80
2018-12-14T05:23:59.978Z,7.10
2018-12-14T05:25:05.512Z,7.50
2018-12-14T05:26:11.036Z,7.00
2018-12-14T05:27:16.570Z,7.40
2018-12-14T05:28:22.102Z,9.00
2018-12-14T05:29:27.626Z,7.30
2018-12-14T05:30:33.158Z,9.30
2018-12-14T05:31:38.688Z,9.10
2018-12-14T05:32:44.222Z,11.40
2018-12-14T05:33:49.749Z,8.90
2018-12-14T05:34:55.280Z,6.90
2018-12-14T05:36:00.811Z,8.70
2018-12-14T05:37:06.344Z,10.10
2018-12-14T05:38:11.866Z,10.40
2018-12-14T05:39:17.401Z,10.00
2018-12-14T05:40:22.928Z,11.00
2018-12-14T05:41:28.465Z,12.00
2018-12-14T05:42:33.993Z,14.00
2018-12-14T05:43:39.519Z,12.10
2018-12-14T05:44:45.051Z,9.20
2018-12-14T05:45:50.583Z,8.00
2018-12-14T05:46:56.112Z,10.80
2018-12-14T05:48:01.641Z,9.20
2018-12-14T05:49:07.175Z,8.00
2018-12-14T05:50:12.700Z,7.70
2018-12-14T05:51:18.238Z,8.90
2018-12-14T05:52:23.762Z,9.50
2018-12-14T05:53:29.295Z,9.30
2018-12-14T05:54:34.823Z,8.80
2018-12-14T05:55:40.350Z,8.50
2018-12-14T05:56:45.881Z,9.70
2018-12-14T05:57:51.411Z,8.80
2018-12-14T05:58:56.942Z,11.50
2018-12-14T06:00:02.472Z,9.70
2018-12-14T06:01:08.003Z,8.80
2018-12-14T06:02:13.537Z,7.90
2018-12-14T06:03:19.062Z,7.60
2018-12-14T06:04:24.591Z,8.30
2018-12-14T06:05:30.122Z,7.70
2018-12-14T06:06:35.650Z,9.40
2018-12-14T06:07:41.182Z,10.20
2018-12-14T06:08:46.715Z,7.70
2018-12-14T06:09:52.246Z,9.40
2018-12-14T06:10:57.774Z,7.80
2018-12-14T06:12:03.306Z,10.20
2018-12-14T06:13:09.331Z,8.40
2018-12-14T06:14:14.365Z,8.50
2018-12-14T06:15:19.895Z,10.00
2018-12-14T06:16:25.427Z,8.00
2018-12-14T06:17:30.957Z,9.50
2018-12-14T06:18:36.484Z,8.60
2018-12-14T06:19:42.017Z,9.20
2018-12-14T06:20:47.546Z,10.10
2018-12-14T06:21:53.081Z,9.50
2018-12-14T06:22:58.607Z,8.80
2018-12-14T06:24:04.141Z,7.50
2018-12-14T06:25:09.675Z,9.10
2018-12-14T06:26:15.204Z,9.10
2018-12-14T06:27:20.731Z,7.50
2018-12-14T06:28:26.262Z,8.50
2018-12-14T06:29:31.809Z,8.40
2018-12-14T06:30:37.318Z,8.10
2018-12-14T06:31:42.856Z,8.40
2018-12-14T06:32:48.388Z,7.90
2018-12-14T06:33:53.916Z,7.90
2018-12-14T06:34:59.442Z,10.70
2018-12-14T06:36:04.975Z,9.30
2018-12-14T06:37:10.507Z,9.30
2018-12-14T06:38:16.030Z,7.50
2018-12-14T06:39:21.558Z,11.40
2018-12-14T06:40:27.093Z,9.70
2018-12-14T06:41:32.620Z,8.40
2018-12-14T06:42:38.151Z,8.80
2018-12-14T06:43:43.684Z,8.90
2018-12-14T06:44:49.215Z,12.10
2018-12-14T06:45:54.741Z,9.40
2018-12-14T06:47:00.271Z,10.20
2018-12-14T06:48:05.801Z,11.10
2018-12-14T06:49:11.332Z,9.70
2018-12-14T06:50:16.859Z,10.70
2018-12-14T06:51:22.394Z,11.00
2018-12-14T06:52:27.923Z,12.60
2018-12-14T06:53:33.450Z,11.40
2018-12-14T06:54:38.983Z,10.20
2018-12-14T06:55:44.512Z,10.70
2018-12-14T06:56:50.042Z,12.10
2018-12-14T06:57:55.570Z,17.80
2018-12-14T06:59:01.099Z,16.80
2018-12-14T07:00:06.950Z,14.20
2018-12-14T07:01:12.158Z,12.80
2018-12-14T07:02:17.689Z,13.50
2018-12-14T07:03:23.224Z,10.40
2018-12-14T07:04:28.747Z,12.90
2018-12-14T07:05:34.284Z,10.30
2018-12-14T07:06:39.814Z,10.40
2018-12-14T07:07:45.338Z,9.50
2018-12-14T07:08:50.870Z,10.60
2018-12-14T07:09:56.408Z,8.10
2018-12-14T07:11:01.937Z,11.90
2018-12-14T07:12:07.468Z,7.30
2018-12-14T07:13:12.993Z,13.00
2018-12-14T07:14:18.668Z,10.50
2018-12-14T07:15:24.056Z,8.40
2018-12-14T07:16:29.587Z,8.80
2018-12-14T07:17:35.111Z,9.70
2018-12-14T07:18:40.640Z,12.90
2018-12-14T07:19:46.174Z,9.40
2018-12-14T07:20:51.696Z,8.80
2018-12-14T07:21:57.237Z,11.10
2018-12-14T07:23:02.760Z,11.00
2018-12-14T07:24:08.288Z,9.40
2018-12-14T07:25:13.826Z,10.70
2018-12-14T07:26:19.345Z,10.50
2018-12-14T07:27:24.879Z,11.50
2018-12-14T07:28:30.410Z,10.60
2018-12-14T07:29:35.943Z,11.90
2018-12-14T07:30:41.578Z,9.50
2018-12-14T07:31:46.997Z,11.30
2018-12-14T07:32:52.527Z,10.10
2018-12-14T07:33:58.063Z,8.30
2018-12-14T07:35:03.593Z,12.20
2018-12-14T07:36:09.118Z,9.70
2018-12-14T07:37:14.652Z,10.30
2018-12-14T07:38:20.179Z,10.40
2018-12-14T07:39:25.707Z,8.60
2018-12-14T07:40:31.243Z,10.00
2018-12-14T07:41:36.773Z,10.30
2018-12-14T07:42:42.306Z,10.10
2018-12-14T07:43:47.834Z,7.20
2018-12-14T07:44:53.522Z,9.70
2018-12-14T07:45:58.895Z,9.40
2018-12-14T07:47:04.420Z,9.10
2018-12-14T07:48:09.957Z,10.60
2018-12-14T07:49:15.481Z,8.50
2018-12-14T07:50:21.013Z,12.10
2018-12-14T07:51:26.552Z,10.00
2018-12-14T07:52:32.073Z,9.50
2018-12-14T07:53:37.604Z,14.70
2018-12-14T07:54:43.134Z,9.70
2018-12-14T07:55:48.667Z,11.00
2018-12-14T07:56:55.692Z,8.00
2018-12-14T07:57:59.726Z,8.10
2018-12-14T07:59:05.262Z,8.70
2018-12-14T08:00:10.786Z,7.90
2018-12-14T08:01:16.318Z,8.50
2018-12-14T08:02:21.847Z,8.10
2018-12-14T08:03:27.377Z,8.50
2018-12-14T08:04:32.911Z,10.20
2018-12-14T08:05:38.444Z,8.70
2018-12-14T08:06:43.969Z,10.30
2018-12-14T08:07:49.497Z,7.50
2018-12-14T08:08:55.030Z,7.60
2018-12-14T08:10:00.560Z,7.70
2018-12-14T08:11:06.090Z,7.80
2018-12-14T08:12:11.624Z,9.20
2018-12-14T08:13:17.154Z,8.90
2018-12-14T08:14:22.679Z,8.80
2018-12-14T08:15:28.218Z,11.00
2018-12-14T08:16:33.750Z,7.70
2018-12-14T08:17:39.274Z,9.40
2018-12-14T08:18:44.802Z,10.90
2018-12-14T08:19:50.338Z,6.60
2018-12-14T08:20:55.866Z,8.40
2018-12-14T08:22:01.396Z,9.90
2018-12-14T08:23:06.923Z,9.50
2018-12-14T08:24:12.458Z,7.90
2018-12-14T08:25:17.993Z,8.50
2018-12-14T08:26:23.517Z,9.20
2018-12-14T08:27:29.046Z,8.30
2018-12-14T08:28:34.583Z,8.90
2018-12-14T08:29:40.108Z,15.80
2018-12-14T08:30:45.637Z,9.60
2018-12-14T08:31:51.170Z,8.40
2018-12-14T08:32:56.706Z,10.90
2018-12-14T08:34:02.231Z,8.80
2018-12-14T08:35:07.765Z,8.60
2018-12-14T08:36:13.296Z,8.90
2018-12-14T08:37:18.825Z,9.50
2018-12-14T08:38:24.358Z,10.10
2018-12-14T08:39:29.886Z,9.00
2018-12-14T08:40:35.418Z,10.50
2018-12-14T08:41:40.943Z,11.30
2018-12-14T08:42:46.472Z,11.80
2018-12-14T08:43:52.011Z,12.30
2018-12-14T08:44:57.534Z,10.80
2018-12-14T08:46:03.067Z,9.70
2018-12-14T08:47:08.598Z,10.40
2018-12-14T08:48:14.128Z,10.70
2018-12-14T08:49:19.665Z,9.20
2018-12-14T08:50:25.193Z,8.40
2018-12-14T08:51:30.720Z,10.10
2018-12-14T08:52:36.252Z,13.30
2018-12-14T08:53:41.782Z,9.20
2018-12-14T08:54:47.309Z,10.20
2018-12-14T08:55:52.840Z,9.60
2018-12-14T08:56:58.375Z,13.90
2018-12-14T08:58:03.900Z,10.70
2018-12-14T08:59:09.438Z,9.00
2018-12-14T09:00:14.963Z,7.00
2018-12-14T09:01:20.493Z,13.40
2018-12-14T09:02:26.023Z,8.60
2018-12-14T09:03:31.554Z,8.00
2018-12-14T09:04:37.084Z,10.60
2018-12-14T09:05:42.617Z,8.60
2018-12-14T09:06:48.147Z,9.40
2018-12-14T09:07:53.682Z,9.80
2018-12-14T09:08:59.207Z,9.90
2018-12-14T09:10:04.739Z,10.90
2018-12-14T09:11:10.272Z,8.40
2018-12-14T09:12:15.801Z,9.00
2018-12-14T09:13:21.329Z,10.90
2018-12-14T09:14:26.867Z,10.30
2018-12-14T09:15:32.402Z,9.40
2018-12-14T09:16:37.927Z,10.70
2018-12-14T09:17:43.457Z,8.40
2018-12-14T09:18:48.988Z,9.20
2018-12-14T09:19:54.520Z,11.90
2018-12-14T09:21:01.231Z,10.10
2018-12-14T09:22:05.582Z,10.70
2018-12-14T09:23:11.108Z,25.00
2018-12-14T09:24:16.634Z,32.00
2018-12-14T09:25:22.167Z,24.80
2018-12-14T09:26:27.701Z,33.50
2018-12-14T09:27:33.230Z,35.30
2018-12-14T09:28:38.756Z,35.80
2018-12-14T09:29:44.294Z,47.00
2018-12-14T09:30:49.818Z,35.30
2018-12-14T09:31:55.350Z,26.40
2018-12-14T09:33:00.879Z,19.30
2018-12-14T09:34:06.415Z,12.90
2018-12-14T09:35:11.942Z,12.20
2018-12-14T09:36:17.474Z,10.60
2018-12-14T09:37:23.007Z,7.80
2018-12-14T09:38:28.533Z,10.90
2018-12-14T09:39:34.063Z,10.60
2018-12-14T09:40:39.594Z,8.50
2018-12-14T09:41:45.124Z,8.00
2018-12-14T09:42:50.659Z,10.70
2018-12-14T09:43:56.182Z,9.80
2018-12-14T09:45:01.715Z,7.50
2018-12-14T09:46:07.242Z,9.20
2018-12-14T09:47:12.775Z,8.30
2018-12-14T09:48:18.304Z,8.60
2018-12-14T09:49:23.835Z,10.90
2018-12-14T09:50:29.374Z,13.60
2018-12-14T09:51:34.895Z,12.50
2018-12-14T09:52:40.432Z,9.60
2018-12-14T09:53:45.954Z,13.50
2018-12-14T09:54:51.492Z,12.50
2018-12-14T09:55:57.018Z,10.00
2018-12-14T09:57:02.545Z,10.80
2018-12-14T09:58:08.075Z,9.60
2018-12-14T09:59:13.612Z,8.40
2018-12-14T10:00:19.144Z,9.80
2018-12-14T10:01:24.673Z,11.90
2018-12-14T10:02:30.203Z,11.20
2018-12-14T10:03:35.734Z,8.00
2018-12-14T10:04:41.267Z,9.40
2018-12-14T10:05:46.791Z,10.20
2018-12-14T10:06:52.327Z,10.30
2018-12-14T10:07:57.853Z,9.30
2018-12-14T10:09:03.389Z,11.20
2018-12-14T10:10:08.914Z,10.90
2018-12-14T10:11:14.449Z,14.60
2018-12-14T10:12:19.975Z,12.10
2018-12-14T10:13:25.502Z,12.80
2018-12-14T10:14:31.034Z,12.70
2018-12-14T10:15:36.563Z,12.30
2018-12-14T10:16:42.097Z,15.90
2018-12-14T10:17:47.628Z,18.00
2018-12-14T10:18:53.157Z,16.80
2018-12-14T10:21:30.279Z,14.80
2018-12-14T10:22:41.398Z,15.10
2018-12-14T10:23:41.314Z,15.00
2018-12-14T10:24:46.850Z,12.40
2018-12-14T10:25:52.378Z,12.80
2018-12-14T10:26:57.904Z,13.60
2018-12-14T10:28:03.435Z,10.60
2018-12-14T10:29:08.967Z,9.80
2018-12-14T10:30:14.497Z,11.30
2018-12-14T10:31:20.022Z,10.20
2018-12-14T10:32:25.551Z,11.40
2018-12-14T10:33:31.090Z,9.60
2018-12-14T10:34:36.613Z,9.20
2018-12-14T10:35:42.145Z,11.50
2018-12-14T10:36:47.673Z,8.30
2018-12-14T10:37:53.210Z,8.20
2018-12-14T10:38:58.741Z,11.10
2018-12-14T10:40:04.268Z,9.80
2018-12-14T10:41:09.793Z,8.90
2018-12-14T10:42:15.326Z,7.70
2018-12-14T10:43:20.861Z,10.20
2018-12-14T10:44:29.757Z,11.10
2018-12-14T10:45:31.919Z,11.60
2018-12-14T10:46:37.446Z,11.20
2018-12-14T10:47:42.983Z,10.80
2018-12-14T10:48:48.508Z,12.30
2018-12-14T10:49:54.043Z,9.30
2018-12-14T10:50:59.568Z,11.90
2018-12-14T10:52:05.101Z,10.10
2018-12-14T10:53:10.682Z,14.00
2018-12-14T10:54:16.159Z,8.40
2018-12-14T10:55:21.695Z,9.20
2018-12-14T10:56:27.223Z,9.50
2018-12-14T10:57:32.750Z,9.60
2018-12-14T10:58:38.281Z,12.10
2018-12-14T10:59:43.810Z,11.30
2018-12-14T11:00:49.346Z,9.30
2018-12-14T11:01:54.872Z,9.60
2018-12-14T11:03:00.411Z,10.60
2018-12-14T11:04:05.937Z,11.60
2018-12-14T11:05:11.463Z,11.60
2018-12-14T11:06:16.994Z,10.40
2018-12-14T11:07:22.523Z,8.20
2018-12-14T11:08:28.058Z,12.00
2018-12-14T11:09:33.586Z,9.00
2018-12-14T11:10:39.115Z,11.80
2018-12-14T11:11:44.645Z,11.30
2018-12-14T11:12:50.179Z,10.40
2018-12-14T11:13:55.710Z,10.60
2018-12-14T11:15:01.245Z,8.80
2018-12-14T11:16:06.770Z,9.10
2018-12-14T11:17:12.297Z,16.50
2018-12-14T11:18:17.833Z,11.20
2018-12-14T11:19:23.363Z,8.70
2018-12-14T11:20:28.889Z,9.80
2018-12-14T11:21:34.424Z,10.00
2018-12-14T11:22:39.950Z,8.20
2018-12-14T11:23:45.503Z,11.10
2018-12-14T11:24:51.014Z,9.80
2018-12-14T11:25:56.546Z,10.10
2018-12-14T11:27:02.072Z,8.20
2018-12-14T11:28:07.604Z,9.30
2018-12-14T11:29:13.132Z,10.50
2018-12-14T11:30:18.665Z,9.50
2018-12-14T11:31:24.195Z,10.00
2018-12-14T11:32:29.724Z,11.60
2018-12-14T11:33:35.252Z,12.10
2018-12-14T11:34:40.787Z,8.70
2018-12-14T11:35:46.315Z,9.30
2018-12-14T11:36:51.845Z,9.60
2018-12-14T11:37:57.382Z,10.60
2018-12-14T11:39:04.251Z,10.00
2018-12-14T11:40:08.436Z,10.80
2018-12-14T11:41:18.463Z,11.00
2018-12-14T11:42:19.505Z,12.80
2018-12-14T11:43:25.034Z,14.20
2018-12-14T11:44:30.565Z,8.90
2018-12-14T11:45:36.090Z,10.60
2018-12-14T11:46:41.622Z,11.00
2018-12-14T11:47:47.151Z,9.70
2018-12-14T11:48:52.682Z,11.00
2018-12-14T11:49:58.209Z,12.50
2018-12-14T11:51:03.741Z,10.80
2018-12-14T11:52:09.270Z,12.10
2018-12-14T11:53:14.806Z,9.00
2018-12-14T11:54:20.332Z,11.30
2018-12-14T11:55:25.863Z,9.10
2018-12-14T11:56:31.395Z,10.60
2018-12-14T11:57:36.928Z,11.70
2018-12-14T11:58:42.451Z,11.20
2018-12-14T11:59:47.985Z,11.30
2018-12-14T12:00:53.517Z,9.80
2018-12-14T12:01:59.049Z,10.30
2018-12-14T12:03:04.575Z,10.70
2018-12-14T12:04:10.107Z,9.70
2018-12-14T12:05:15.638Z,8.80
2018-12-14T12:06:21.168Z,9.60
2018-12-14T12:07:26.697Z,11.40
2018-12-14T12:08:32.228Z,9.90
2018-12-14T12:09:37.760Z,8.50
2018-12-14T12:10:43.295Z,9.20
2018-12-14T12:11:48.822Z,11.90
2018-12-14T12:12:54.352Z,10.20
2018-12-14T12:13:59.879Z,10.80
2018-12-14T12:15:05.410Z,9.70
2018-12-14T12:16:10.940Z,10.70
2018-12-14T12:17:16.472Z,11.20
2018-12-14T12:18:22.002Z,12.00
2018-12-14T12:19:27.534Z,8.30
2018-12-14T12:20:33.076Z,9.90
2018-12-14T12:21:38.593Z,9.50
2018-12-14T12:22:44.129Z,12.50
2018-12-14T12:23:55.044Z,10.40
2018-12-14T12:24:55.186Z,9.50
2018-12-14T12:26:00.722Z,11.10
2018-12-14T12:27:06.250Z,9.50
2018-12-14T12:28:11.778Z,11.60
2018-12-14T12:29:17.314Z,15.80
2018-12-14T12:30:22.840Z,22.60
2018-12-14T12:31:28.368Z,21.30
2018-12-14T12:32:33.900Z,17.80
2018-12-14T12:33:39.432Z,15.50
2018-12-14T12:34:44.971Z,10.80
2018-12-14T12:35:50.491Z,13.00
2018-12-14T12:36:56.028Z,10.60
2018-12-14T12:38:01.553Z,13.70
2018-12-14T12:39:07.081Z,12.70
2018-12-14T12:40:12.614Z,12.60
2018-12-14T12:41:18.148Z,12.30
2018-12-14T12:42:23.681Z,11.80
2018-12-14T12:43:29.203Z,11.60
2018-12-14T12:44:34.734Z,12.30
2018-12-14T12:45:40.269Z,10.00
2018-12-14T12:46:45.798Z,11.20
2018-12-14T12:47:51.325Z,9.20
2018-12-14T12:48:56.858Z,12.10
2018-12-14T12:50:02.386Z,11.20
2018-12-14T12:51:07.924Z,10.70
2018-12-14T12:52:13.477Z,12.20
2018-12-14T12:53:18.979Z,13.70
2018-12-14T12:54:24.510Z,11.80
2018-12-14T12:55:30.038Z,10.00
2018-12-14T12:56:35.573Z,10.60
2018-12-14T12:57:41.099Z,13.00
2018-12-14T12:58:46.631Z,11.10
2018-12-14T12:59:52.159Z,9.90
2018-12-14T13:00:57.697Z,11.90
2018-12-14T13:02:03.219Z,12.80
2018-12-14T13:03:08.750Z,11.50
2018-12-14T13:04:14.287Z,12.10
2018-12-14T13:05:19.816Z,11.60
2018-12-14T13:06:25.341Z,13.20
2018-12-14T13:07:30.875Z,14.50
2018-12-14T13:08:36.402Z,11.70
2018-12-14T13:09:41.935Z,10.20
2018-12-14T13:10:47.460Z,13.10
2018-12-14T13:11:52.990Z,12.60
2018-12-14T13:12:58.523Z,13.50
2018-12-14T13:14:04.059Z,13.30
2018-12-14T13:15:09.579Z,11.50
2018-12-14T13:16:15.114Z,10.60
2018-12-14T13:17:20.642Z,10.80
2018-12-14T13:18:26.181Z,11.00
2018-12-14T13:19:31.703Z,10.70
2018-12-14T13:20:37.229Z,14.40
2018-12-14T13:21:42.766Z,11.10
2018-12-14T13:22:48.294Z,11.60
2018-12-14T13:23:53.819Z,20.00
2018-12-14T13:24:59.355Z,10.50
2018-12-14T13:26:04.882Z,12.20
2018-12-14T13:27:10.410Z,12.90
2018-12-14T13:28:15.949Z,12.30
2018-12-14T13:29:21.477Z,11.00
2018-12-14T13:30:26.997Z,12.20
2018-12-14T13:31:32.532Z,15.80
2018-12-14T13:32:38.067Z,11.10
2018-12-14T13:33:43.591Z,15.30
2018-12-14T13:34:49.127Z,16.10
2018-12-14T13:35:54.651Z,16.00
2018-12-14T13:37:00.189Z,14.30
2018-12-14T13:38:05.717Z,12.20
2018-12-14T13:39:11.242Z,12.90
2018-12-14T13:40:16.771Z,13.00
2018-12-14T13:41:23.331Z,12.60
2018-12-14T13:42:27.852Z,12.70
2018-12-14T13:43:33.436Z,14.00
2018-12-14T13:44:38.903Z,14.50
2018-12-14T13:45:44.422Z,15.80
2018-12-14T13:46:50.252Z,17.10
2018-12-14T13:47:55.487Z,15.50
2018-12-14T13:49:02.887Z,12.70
2018-12-14T13:50:06.570Z,13.30
2018-12-14T13:51:12.074Z,9.80
2018-12-14T13:52:17.611Z,13.90
2018-12-14T13:53:23.136Z,13.50
2018-12-14T13:54:28.666Z,11.40
2018-12-14T13:55:34.199Z,16.30
2018-12-14T13:56:39.723Z,14.50
2018-12-14T13:57:45.640Z,12.90
2018-12-14T13:58:50.784Z,14.80
2018-12-14T13:59:56.314Z,13.00
2018-12-14T14:01:01.848Z,12.40
2018-12-14T14:02:07.374Z,13.50
2018-12-14T14:03:12.910Z,13.20
2018-12-14T14:04:18.437Z,14.40
2018-12-14T14:05:23.962Z,13.20
2018-12-14T14:06:29.491Z,14.20
2018-12-14T14:07:35.027Z,12.30
2018-12-14T14:08:40.565Z,12.80
2018-12-14T14:09:46.091Z,13.50
2018-12-14T14:10:51.609Z,12.90
2018-12-14T14:11:57.148Z,15.90
2018-12-14T14:13:02.670Z,15.40
2018-12-14T14:14:08.208Z,14.20
2018-12-14T14:15:13.735Z,14.10
2018-12-14T14:16:19.261Z,15.80
2018-12-14T14:17:24.792Z,14.50
2018-12-14T14:18:30.322Z,11.70
2018-12-14T14:19:35.856Z,15.20
2018-12-14T14:20:41.385Z,16.70